createdAt,value
2024-01-14T00:02:29.889Z,65.03
2024-01-14T00:05:02.068Z,72.00
2024-01-14T00:07:34.217Z,67.47
2024-01-14T00:10:07.035Z,61.43
2024-01-14T00:12:39.154Z,67.27
2024-01-14T00:15:11.768Z,62.63
2024-01-14T00:17:43.906Z,64.60
2024-01-14T00:20:16.198Z,66.37
2024-01-14T00:22:48.575Z,68.77
2024-01-14T00:25:23.187Z,65.17
2024-01-14T00:27:55.147Z,63.63
2024-01-14T00:30:27.228Z,69.87
2024-01-14T00:32:59.318Z,64.23
2024-01-14T00:35:31.405Z,65.23
2024-01-14T00:38:03.735Z,63.17
2024-01-14T00:40:36.227Z,64.97
2024-01-14T00:43:08.226Z,62.07
2024-01-14T00:45:40.240Z,63.07
2024-01-14T00:48:12.576Z,63.20
2024-01-14T00:50:44.788Z,64.00
2024-01-14T00:53:16.758Z,60.63
2024-01-14T00:55:48.762Z,59.53
2024-01-14T00:58:20.766Z,64.53
2024-01-14T01:00:53.300Z,65.10
2024-01-14T01:03:25.451Z,63.37
2024-01-14T01:05:57.638Z,64.50
2024-01-14T01:08:29.614Z,67.23
2024-01-14T01:11:01.557Z,64.20
2024-01-14T01:13:33.528Z,69.90
2024-01-14T01:16:05.887Z,69.13
2024-01-14T01:18:38.139Z,60.70
2024-01-14T01:21:10.280Z,62.10
2024-01-14T01:23:42.303Z,64.23
2024-01-14T01:26:15.192Z,63.73
2024-01-14T01:28:47.235Z,67.80
2024-01-14T01:31:27.591Z,66.53
2024-01-14T01:34:06.904Z,61.07
2024-01-14T01:36:39.047Z,62.33
2024-01-14T01:39:11.110Z,59.23
2024-01-14T01:41:43.057Z,62.87
2024-01-14T01:44:15.026Z,61.53
2024-01-14T01:46:48.834Z,60.57
2024-01-14T01:49:21.625Z,61.80
2024-01-14T01:51:54.548Z,57.77
2024-01-14T01:54:29.666Z,59.60
2024-01-14T01:57:02.002Z,59.20
2024-01-14T01:59:34.972Z,60.23
2024-01-14T02:02:07.187Z,56.37
2024-01-14T02:04:39.975Z,63.07
2024-01-14T02:07:12.939Z,59.83
2024-01-14T02:09:44.869Z,65.53
2024-01-14T02:12:16.847Z,55.40
2024-01-14T02:14:48.951Z,59.23
2024-01-14T02:17:20.907Z,61.77
2024-01-14T02:19:52.976Z,58.20
2024-01-14T02:22:32.283Z,59.03
2024-01-14T02:25:05.219Z,58.93
2024-01-14T02:27:37.409Z,59.90
2024-01-14T02:30:11.288Z,61.50
2024-01-14T02:32:43.511Z,63.23
2024-01-14T02:35:15.712Z,63.00
2024-01-14T02:37:48.800Z,60.23
2024-01-14T02:40:20.898Z,57.27
2024-01-14T02:42:52.934Z,61.37
2024-01-14T02:45:24.938Z,58.73
2024-01-14T02:47:57.041Z,60.20
2024-01-14T02:50:29.313Z,61.57
2024-01-14T02:53:01.268Z,65.53
2024-01-14T02:55:33.235Z,64.63
2024-01-14T02:58:05.223Z,60.57
2024-01-14T03:00:37.305Z,66.77
2024-01-14T03:03:09.395Z,64.23
2024-01-14T03:05:41.444Z,64.77
2024-01-14T03:08:13.452Z,62.63
2024-01-14T03:10:45.618Z,59.43
2024-01-14T03:13:18.035Z,63.40
2024-01-14T03:15:50.081Z,60.63
2024-01-14T03:18:22.279Z,58.00
2024-01-14T03:20:54.388Z,55.10
2024-01-14T03:23:26.379Z,55.73
2024-01-14T03:25:58.593Z,51.63
2024-01-14T03:28:30.683Z,58.20
2024-01-14T03:31:03.004Z,54.03
2024-01-14T03:33:35.870Z,55.80
2024-01-14T03:36:08.175Z,55.67
2024-01-14T03:38:40.141Z,53.40
2024-01-14T03:41:13.596Z,52.47
2024-01-14T03:43:45.623Z,52.77
2024-01-14T03:46:17.809Z,54.27
2024-01-14T03:48:49.937Z,53.47
2024-01-14T03:51:22.104Z,55.07
2024-01-14T03:53:54.165Z,52.53
2024-01-14T03:56:26.125Z,49.90
2024-01-14T03:58:58.049Z,54.13
2024-01-14T04:01:30.047Z,52.73
2024-01-14T04:04:02.269Z,50.63
2024-01-14T04:06:34.621Z,49.30
2024-01-14T04:09:06.796Z,50.33
2024-01-14T04:11:38.805Z,48.47
2024-01-14T04:14:10.858Z,50.40
2024-01-14T04:16:43.186Z,47.50
2024-01-14T04:19:15.159Z,48.17
2024-01-14T04:21:47.655Z,46.53
2024-01-14T04:24:19.628Z,49.83
2024-01-14T04:26:51.648Z,49.47
2024-01-14T04:29:23.626Z,53.13
2024-01-14T04:31:55.593Z,50.07
2024-01-14T04:34:27.712Z,48.23
2024-01-14T04:36:59.977Z,47.17
2024-01-14T04:39:32.055Z,46.93
2024-01-14T04:42:04.543Z,49.60
2024-01-14T04:44:36.512Z,49.27
2024-01-14T04:47:08.445Z,45.77
2024-01-14T04:49:40.518Z,46.50
2024-01-14T04:52:12.609Z,43.83
2024-01-14T04:54:44.587Z,44.53
2024-01-14T04:57:16.705Z,45.87
2024-01-14T04:59:48.714Z,46.60
2024-01-14T05:02:20.666Z,42.10
2024-01-14T05:04:52.725Z,41.67
2024-01-14T05:07:24.714Z,43.23
2024-01-14T05:09:56.691Z,41.07
2024-01-14T05:12:28.734Z,39.63
2024-01-14T05:15:01.687Z,41.90
2024-01-14T05:17:33.888Z,38.67
2024-01-14T05:20:07.333Z,38.93
2024-01-14T05:22:39.321Z,39.30
2024-01-14T05:25:11.466Z,38.47
2024-01-14T05:27:43.512Z,38.97
2024-01-14T05:30:15.979Z,41.07
2024-01-14T05:32:48.019Z,41.30
2024-01-14T05:35:20.014Z,42.57
2024-01-14T05:37:51.958Z,40.83
2024-01-14T05:40:25.006Z,39.20
2024-01-14T05:42:56.918Z,43.10
2024-01-14T05:45:28.903Z,45.03
2024-01-14T05:48:00.948Z,40.47
2024-01-14T05:50:32.975Z,42.93
2024-01-14T05:53:05.065Z,44.90
2024-01-14T05:55:37.077Z,42.67
2024-01-14T05:58:09.717Z,44.67
2024-01-14T06:00:41.868Z,42.43
2024-01-14T06:03:14.076Z,48.27
2024-01-14T06:05:46.220Z,44.30
2024-01-14T06:08:18.164Z,47.87
2024-01-14T06:10:50.126Z,44.43
2024-01-14T06:13:22.394Z,42.67
2024-01-14T06:15:54.427Z,44.83
2024-01-14T06:18:26.605Z,43.43
2024-01-14T06:21:01.577Z,46.30
2024-01-14T06:23:35.442Z,40.87
2024-01-14T06:26:07.382Z,41.57
2024-01-14T06:28:39.358Z,40.13
2024-01-14T06:31:11.506Z,42.27
2024-01-14T06:33:43.520Z,41.67
2024-01-14T06:36:18.806Z,39.47
2024-01-14T06:38:51.006Z,40.20
2024-01-14T06:41:26.651Z,39.40
2024-01-14T06:43:58.713Z,39.37
2024-01-14T06:46:30.663Z,38.70
2024-01-14T06:49:03.087Z,40.27
2024-01-14T06:51:35.138Z,39.17
2024-01-14T06:54:07.201Z,36.53
2024-01-14T06:56:46.533Z,35.53
2024-01-14T06:59:20.154Z,36.10
2024-01-14T07:01:52.925Z,36.37
2024-01-14T07:04:25.029Z,40.53
2024-01-14T07:06:57.379Z,37.90
2024-01-14T07:09:29.409Z,40.33
2024-01-14T07:12:05.370Z,38.97
2024-01-14T07:14:37.413Z,37.37
2024-01-14T07:17:09.469Z,38.70
2024-01-14T07:19:41.528Z,36.40
2024-01-14T07:22:13.719Z,37.50
2024-01-14T07:24:45.799Z,43.33
2024-01-14T07:27:17.777Z,42.07
2024-01-14T07:29:49.731Z,41.77
2024-01-14T07:32:21.743Z,44.40
2024-01-14T07:34:53.819Z,45.53
2024-01-14T07:37:26.193Z,43.47
2024-01-14T07:39:58.228Z,42.67
2024-01-14T07:42:30.251Z,43.67
2024-01-14T07:45:04.170Z,44.77
2024-01-14T07:47:36.140Z,44.73
2024-01-14T07:50:08.683Z,52.92
2024-01-14T07:52:40.676Z,46.83
2024-01-14T07:55:12.741Z,44.17
2024-01-14T07:57:44.781Z,41.60
2024-01-14T08:00:18.168Z,41.77
2024-01-14T08:02:50.353Z,40.80
2024-01-14T08:05:22.373Z,37.60
2024-01-14T08:07:54.362Z,37.47
2024-01-14T08:10:26.457Z,36.77
2024-01-14T08:12:58.652Z,39.63
2024-01-14T08:15:31.213Z,34.57
2024-01-14T08:18:07.618Z,36.93
2024-01-14T08:20:39.829Z,34.93
2024-01-14T08:23:13.490Z,33.77
2024-01-14T08:25:46.675Z,32.30
2024-01-14T08:28:18.718Z,33.30
2024-01-14T08:30:50.701Z,34.60
2024-01-14T08:33:22.794Z,33.53
2024-01-14T08:35:58.322Z,35.23
2024-01-14T08:38:30.441Z,33.60
2024-01-14T08:41:02.469Z,32.93
2024-01-14T08:43:34.492Z,38.23
2024-01-14T08:46:06.478Z,35.27
2024-01-14T08:48:38.593Z,36.53
2024-01-14T08:51:11.459Z,35.97
2024-01-14T08:53:43.538Z,38.17
2024-01-14T08:56:15.675Z,35.17
2024-01-14T08:58:48.300Z,35.53
2024-01-14T09:01:20.234Z,35.10
2024-01-14T09:03:53.229Z,36.53
2024-01-14T09:06:25.579Z,38.90
2024-01-14T09:08:57.737Z,37.13
2024-01-14T09:11:29.704Z,34.87
2024-01-14T09:14:01.846Z,36.37
2024-01-14T09:16:33.811Z,35.07
2024-01-14T09:19:06.064Z,32.23
2024-01-14T09:21:38.217Z,34.43
2024-01-14T09:24:10.516Z,39.13
2024-01-14T09:26:42.520Z,35.63
2024-01-14T09:29:14.607Z,33.83
2024-01-14T09:31:47.035Z,38.17
2024-01-14T09:34:19.263Z,36.23
2024-01-14T09:36:51.301Z,39.10
2024-01-14T09:39:23.315Z,39.00
2024-01-14T09:42:25.405Z,36.17
2024-01-14T09:45:03.338Z,37.77
2024-01-14T09:47:37.103Z,38.23
2024-01-14T09:50:11.263Z,37.37
2024-01-14T09:52:43.647Z,38.77
2024-01-14T09:55:15.999Z,39.30
2024-01-14T09:57:51.086Z,41.80
2024-01-14T10:00:24.623Z,42.10
2024-01-14T10:02:57.776Z,38.73
2024-01-14T10:05:29.889Z,41.30
2024-01-14T10:08:02.004Z,41.00
2024-01-14T10:10:35.074Z,39.17
2024-01-14T10:13:09.103Z,39.20
2024-01-14T10:15:48.569Z,41.80
2024-01-14T10:18:24.102Z,37.13
2024-01-14T10:20:57.777Z,38.93
2024-01-14T10:23:30.036Z,38.87
2024-01-14T10:26:02.926Z,40.30
2024-01-14T10:28:39.686Z,40.47
2024-01-14T10:31:12.392Z,39.83
2024-01-14T10:33:46.493Z,38.13
2024-01-14T10:36:18.959Z,37.63
2024-01-14T10:38:53.715Z,37.30
2024-01-14T10:41:26.809Z,32.13
2024-01-14T10:43:59.175Z,32.63
2024-01-14T10:46:33.897Z,35.47
2024-01-14T10:49:09.722Z,35.37
2024-01-14T10:51:43.796Z,37.13
2024-01-14T10:54:48.710Z,36.93
2024-01-14T10:57:36.785Z,39.53
2024-01-14T11:00:10.788Z,36.53
2024-01-14T11:02:46.036Z,37.87
2024-01-14T11:05:20.816Z,38.67
2024-01-14T11:07:54.834Z,39.63
2024-01-14T11:10:27.031Z,39.93
2024-01-14T11:13:29.547Z,34.93
2024-01-14T11:16:19.745Z,36.33
2024-01-14T11:19:10.886Z,37.50
2024-01-14T11:22:32.033Z,37.47
2024-01-14T11:25:18.928Z,38.90
2024-01-14T11:27:54.947Z,35.70
2024-01-14T11:30:54.646Z,36.23
2024-01-14T11:33:30.463Z,36.23
2024-01-14T11:36:03.010Z,37.83
2024-01-14T11:38:44.798Z,35.50
2024-01-14T11:41:31.986Z,37.20
2024-01-14T11:44:15.113Z,36.13
2024-01-14T11:46:52.026Z,36.43
2024-01-14T11:49:32.571Z,36.20
2024-01-14T11:52:09.037Z,37.00
2024-01-14T11:54:45.471Z,39.43
2024-01-14T11:57:27.116Z,37.37
2024-01-14T11:59:59.394Z,38.43
2024-01-14T12:02:31.536Z,37.40
2024-01-14T12:05:23.960Z,37.43
2024-01-14T12:07:56.170Z,39.67
2024-01-14T12:10:33.343Z,38.97
2024-01-14T12:13:10.956Z,38.97
2024-01-14T12:15:51.762Z,42.10
2024-01-14T12:18:45.565Z,38.97
2024-01-14T12:21:27.471Z,37.23
2024-01-14T12:24:05.194Z,40.67
2024-01-14T12:26:37.146Z,38.03
2024-01-14T12:29:09.575Z,44.73
2024-01-14T12:31:49.974Z,38.43
2024-01-14T12:34:30.605Z,41.07
2024-01-14T12:37:02.927Z,36.57
2024-01-14T12:39:36.073Z,41.30
2024-01-14T12:42:08.263Z,38.60
2024-01-14T12:44:48.147Z,40.27
2024-01-14T12:47:20.494Z,40.77
2024-01-14T12:49:55.948Z,39.23
2024-01-14T12:52:28.164Z,39.60
2024-01-14T12:55:00.388Z,37.90
2024-01-14T12:57:32.513Z,36.47
2024-01-14T13:00:04.947Z,39.33
2024-01-14T13:02:37.046Z,36.67
2024-01-14T13:05:09.086Z,35.23
2024-01-14T13:07:42.193Z,36.00
2024-01-14T13:10:14.355Z,40.07
2024-01-14T13:12:47.244Z,34.90
2024-01-14T13:15:19.806Z,40.43
2024-01-14T13:17:53.326Z,34.03
2024-01-14T13:20:25.461Z,35.47
2024-01-14T13:22:57.538Z,33.77
2024-01-14T13:25:29.515Z,33.77
2024-01-14T13:28:01.468Z,31.50
2024-01-14T13:30:33.565Z,34.50
2024-01-14T13:33:06.233Z,35.97
2024-01-14T13:35:38.329Z,32.97
2024-01-14T13:38:10.290Z,34.70
2024-01-14T13:40:42.221Z,33.50
2024-01-14T13:43:14.371Z,31.87
2024-01-14T13:45:46.307Z,31.60
2024-01-14T13:48:18.645Z,32.57
2024-01-14T13:50:50.729Z,29.70
2024-01-14T13:53:22.723Z,32.77
2024-01-14T13:55:54.723Z,32.57
2024-01-14T13:58:26.711Z,29.77
2024-01-14T14:00:58.959Z,29.93
2024-01-14T14:03:31.068Z,31.70
2024-01-14T14:06:03.636Z,34.57
2024-01-14T14:08:35.742Z,36.40
2024-01-14T14:11:07.726Z,34.17
2024-01-14T14:13:39.718Z,32.63
2024-01-14T14:16:14.982Z,35.87
2024-01-14T14:18:49.516Z,34.63
2024-01-14T14:21:21.937Z,35.37
2024-01-14T14:23:53.978Z,36.40
2024-01-14T14:26:29.124Z,34.27
2024-01-14T14:29:01.154Z,33.97
2024-01-14T14:31:43.915Z,33.40
2024-01-14T14:34:21.747Z,33.73
2024-01-14T14:36:54.168Z,33.63
2024-01-14T14:39:27.541Z,34.23
2024-01-14T14:41:59.600Z,34.90
2024-01-14T14:44:31.586Z,33.10
2024-01-14T14:47:05.465Z,33.53
2024-01-14T14:49:37.565Z,30.60
2024-01-14T14:52:09.644Z,33.53
2024-01-14T14:54:41.746Z,31.90
2024-01-14T14:57:13.762Z,31.47
2024-01-14T14:59:45.722Z,32.70
2024-01-14T15:02:17.719Z,32.50
2024-01-14T15:04:50.016Z,30.73
2024-01-14T15:07:22.151Z,32.97
2024-01-14T15:09:55.065Z,32.53
2024-01-14T15:12:27.956Z,31.20
2024-01-14T15:15:00.029Z,32.00
2024-01-14T15:17:31.999Z,31.23
2024-01-14T15:20:06.607Z,31.33
2024-01-14T15:22:40.428Z,32.83
2024-01-14T15:25:12.421Z,31.07
2024-01-14T15:27:44.686Z,31.70
2024-01-14T15:30:17.000Z,32.47
2024-01-14T15:32:49.321Z,33.23
2024-01-14T15:35:21.737Z,34.23
2024-01-14T15:37:53.854Z,31.90
2024-01-14T15:40:27.183Z,31.30
2024-01-14T15:43:00.829Z,32.23
2024-01-14T15:45:32.922Z,32.93
2024-01-14T15:48:06.999Z,29.20
2024-01-14T15:50:39.068Z,33.53
2024-01-14T15:53:11.003Z,31.80
2024-01-14T15:55:43.094Z,34.17
2024-01-14T15:58:15.063Z,31.63
2024-01-14T16:01:00.119Z,34.97
2024-01-14T16:03:44.213Z,32.47
2024-01-14T16:06:18.300Z,32.33
2024-01-14T16:08:50.270Z,34.67
2024-01-14T16:11:22.346Z,32.93
2024-01-14T16:13:54.390Z,33.20
2024-01-14T16:16:27.492Z,34.60
2024-01-14T16:18:59.563Z,31.43
2024-01-14T16:21:31.718Z,34.03
2024-01-14T16:24:04.325Z,33.93
2024-01-14T16:26:38.244Z,32.23
2024-01-14T16:29:10.340Z,30.67
2024-01-14T16:31:42.507Z,35.67
2024-01-14T16:34:14.668Z,33.07
2024-01-14T16:36:48.489Z,33.83
2024-01-14T16:39:20.622Z,36.33
2024-01-14T16:41:52.603Z,34.93
2024-01-14T16:44:25.388Z,33.40
2024-01-14T16:46:57.408Z,31.60
2024-01-14T16:49:29.488Z,34.20
2024-01-14T16:52:01.718Z,34.77
2024-01-14T16:54:34.357Z,34.03
2024-01-14T16:57:06.418Z,33.20
2024-01-14T16:59:38.441Z,31.07
2024-01-14T17:02:10.473Z,34.30
2024-01-14T17:04:42.462Z,33.73
2024-01-14T17:07:14.429Z,34.43
2024-01-14T17:09:46.449Z,33.30
2024-01-14T17:12:19.015Z,35.87
2024-01-14T17:14:51.068Z,34.07
2024-01-14T17:17:23.448Z,36.03
2024-01-14T17:19:56.128Z,34.60
2024-01-14T17:22:28.127Z,33.83
2024-01-14T17:25:00.117Z,35.43
2024-01-14T17:27:32.644Z,34.20
2024-01-14T17:30:05.188Z,31.27
2024-01-14T17:32:37.338Z,32.73
2024-01-14T17:35:15.328Z,32.67
2024-01-14T17:37:48.856Z,32.17
2024-01-14T17:40:20.841Z,33.50
2024-01-14T17:42:52.790Z,32.60
2024-01-14T17:45:24.747Z,36.23
2024-01-14T17:47:56.797Z,35.33
2024-01-14T17:50:28.791Z,30.67
2024-01-14T17:53:05.522Z,33.43
2024-01-14T17:55:38.107Z,33.27
2024-01-14T17:58:10.046Z,34.37
2024-01-14T18:00:42.188Z,35.53
2024-01-14T18:03:14.613Z,33.57
2024-01-14T18:05:47.919Z,39.00
2024-01-14T18:08:19.923Z,37.40
2024-01-14T18:10:52.101Z,37.57
2024-01-14T18:13:24.246Z,37.17
2024-01-14T18:15:57.671Z,34.80
2024-01-14T18:18:29.891Z,37.37
2024-01-14T18:21:02.735Z,38.90
2024-01-14T18:23:34.804Z,35.93
2024-01-14T18:26:06.778Z,35.90
2024-01-14T18:28:38.831Z,37.83
2024-01-14T18:31:15.885Z,40.67
2024-01-14T18:33:49.020Z,39.80
2024-01-14T18:36:22.847Z,37.83
2024-01-14T18:38:54.897Z,39.73
2024-01-14T18:41:27.983Z,40.33
2024-01-14T18:43:59.947Z,38.77
2024-01-14T18:46:33.129Z,36.57
2024-01-14T18:49:05.179Z,36.90
2024-01-14T18:51:41.316Z,37.73
2024-01-14T18:54:13.593Z,37.10
2024-01-14T18:56:46.712Z,39.93
2024-01-14T18:59:18.791Z,39.93
2024-01-14T19:01:50.750Z,42.83
2024-01-14T19:04:23.674Z,41.00
2024-01-14T19:06:55.834Z,37.33
2024-01-14T19:09:28.270Z,41.10
2024-01-14T19:12:00.335Z,38.13
2024-01-14T19:14:32.396Z,38.43
2024-01-14T19:17:05.176Z,39.93
2024-01-14T19:19:37.190Z,38.20
2024-01-14T19:22:09.517Z,36.97
2024-01-14T19:24:44.889Z,38.50
2024-01-14T19:27:17.150Z,39.10
2024-01-14T19:29:49.566Z,40.67
2024-01-14T19:32:21.848Z,39.57
2024-01-14T19:34:54.133Z,41.27
2024-01-14T19:37:28.079Z,42.83
2024-01-14T19:40:00.328Z,43.40
2024-01-14T19:42:33.627Z,42.97
2024-01-14T19:45:06.481Z,44.13
2024-01-14T19:47:39.484Z,44.03
2024-01-14T19:50:12.235Z,45.97
2024-01-14T19:52:44.406Z,43.87
2024-01-14T19:55:16.886Z,43.53
2024-01-14T19:57:49.337Z,47.57
2024-01-14T20:00:23.202Z,44.97
2024-01-14T20:02:55.753Z,44.07
2024-01-14T20:05:27.814Z,45.10
2024-01-14T20:07:59.751Z,41.40
2024-01-14T20:10:32.200Z,45.20
2024-01-14T20:13:04.673Z,44.87
2024-01-14T20:15:36.795Z,44.60
2024-01-14T20:18:08.927Z,42.37
2024-01-14T20:20:40.993Z,43.13
2024-01-14T20:23:13.064Z,41.00
2024-01-14T20:25:45.114Z,46.00
2024-01-14T20:28:17.153Z,42.67
2024-01-14T20:30:50.713Z,43.10
2024-01-14T20:33:25.541Z,40.73
2024-01-14T20:35:58.857Z,46.97
2024-01-14T20:38:31.370Z,46.23
2024-01-14T20:41:03.522Z,42.40
2024-01-14T20:43:35.539Z,44.67
2024-01-14T20:46:07.781Z,44.93
2024-01-14T20:48:39.896Z,45.03
2024-01-14T20:51:12.029Z,46.53
2024-01-14T20:53:44.739Z,45.37
2024-01-14T20:56:16.931Z,46.20
2024-01-14T20:58:48.907Z,47.13
2024-01-14T21:01:22.117Z,51.63
2024-01-14T21:03:55.628Z,49.10
2024-01-14T21:06:28.902Z,45.90
2024-01-14T21:09:01.339Z,44.53
2024-01-14T21:11:33.939Z,49.93
2024-01-14T21:14:05.921Z,45.33
2024-01-14T21:16:39.645Z,46.90
2024-01-14T21:19:12.907Z,45.43
2024-01-14T21:21:44.993Z,43.37
2024-01-14T21:24:19.054Z,45.53
2024-01-14T21:26:51.312Z,49.77
2024-01-14T21:29:23.300Z,44.73
2024-01-14T21:31:56.038Z,44.73
2024-01-14T21:34:28.032Z,48.97
2024-01-14T21:37:00.098Z,44.97
2024-01-14T21:39:32.496Z,44.33
2024-01-14T21:42:04.805Z,43.43
2024-01-14T21:44:36.851Z,41.77
2024-01-14T21:47:09.169Z,50.17
2024-01-14T21:49:41.349Z,43.33
2024-01-14T21:52:13.470Z,41.50
2024-01-14T21:54:45.573Z,42.63
2024-01-14T21:57:18.216Z,39.40
2024-01-14T21:59:50.192Z,38.63
2024-01-14T22:02:22.309Z,38.40
2024-01-14T22:04:54.502Z,36.93
2024-01-14T22:07:26.532Z,39.23
2024-01-14T22:09:58.819Z,40.17
2024-01-14T22:12:30.852Z,34.77
2024-01-14T22:15:03.018Z,34.53
2024-01-14T22:17:35.091Z,33.53
2024-01-14T22:20:08.701Z,34.53
2024-01-14T22:22:40.931Z,35.43
2024-01-14T22:25:12.992Z,31.53
2024-01-14T22:27:45.047Z,32.07
2024-01-14T22:30:17.256Z,30.07
2024-01-14T22:32:49.509Z,27.27
2024-01-14T22:35:22.466Z,26.80
2024-01-14T22:37:55.481Z,26.67
2024-01-14T22:40:27.547Z,28.30
2024-01-14T22:42:59.555Z,27.03
2024-01-14T22:45:31.824Z,24.63
2024-01-14T22:48:04.555Z,23.83
2024-01-14T22:50:36.669Z,23.53
2024-01-14T22:53:08.695Z,23.93
2024-01-14T22:55:40.738Z,23.93
2024-01-14T22:58:14.004Z,21.57
2024-01-14T23:00:46.544Z,20.13
2024-01-14T23:03:18.769Z,19.80
2024-01-14T23:05:50.845Z,20.83
2024-01-14T23:08:26.023Z,21.33
2024-01-14T23:11:00.002Z,23.37
2024-01-14T23:13:32.450Z,21.70
2024-01-14T23:16:05.576Z,22.87
2024-01-14T23:18:37.781Z,27.93
2024-01-14T23:21:09.938Z,24.93
2024-01-14T23:23:41.966Z,26.53
2024-01-14T23:26:13.982Z,28.40
2024-01-14T23:28:46.043Z,28.97
2024-01-14T23:31:18.326Z,30.90
2024-01-14T23:33:53.232Z,29.37
2024-01-14T23:36:26.244Z,28.50
2024-01-14T23:38:58.570Z,31.00
2024-01-14T23:41:30.637Z,29.27
2024-01-14T23:44:02.660Z,30.17
2024-01-14T23:46:34.666Z,30.03
2024-01-14T23:49:07.328Z,32.33
2024-01-14T23:51:39.448Z,33.90
2024-01-14T23:54:11.759Z,32.93
2024-01-14T23:56:44.201Z,32.93
2024-01-14T23:59:16.243Z,33.30
